Strona główna
METAR-TAF:

METAR-TAF

Lotnisko :

Morristown, New Jersey, Stany Zjednoczone

Szerokość geograficzna: 40-48N, Długość geograficzna: 074-25W, wysokość: 57 m

Aktualna obserwacja pogody

Raport powstał 15 minut temu, godzina 10:55 UTC
Wiatr 3 kt od północ
Temperatura 1°C
Wilgotność 75%
Ciśnienie 1027 hPa
Widzialność: 16.1 km
Przerywane chmury na wysokości 12000 ft

METAR: KMMU 181055Z AUTO 36003KT 10SM BKN120 01/M03 A3034 RMK AO2

czas: 06:10 (11:10 UTC)


TAF: brakujący

Obserwacja i prognoza pogody dla ponad 4000 lotnisk (raport METAR i TAF).

Dostępne stacje oznaczono żółtymi i czerwonymi punktami na mapie.

Najedź kursorem aby zobaczyć nazwę stacji.

Kliknij aby zobaczyć obserwacje i prognozy pogody.

Aby zmienić mapę: kliknij na zielony przycisk z czarnym krzyżykiem, aby powiększyć; na zielony przycisk z myślnikiem, aby pomniejszyć; na zielone strzałki, aby przejść do map sąsiednich.


METAR-TAF: